Terminal Aerodrome Forecast
Issued by NWS Jacksonville, FL

Home | Current Version | Previous Version | Text Only | Print | Product List | Glossary On
Versions: 1 2 3 4 5 6 7 8 9 10 11 12 13 14 15 16 17 18 19 20 21 22 23 24 25 26 27 28 29 30 31 32 33 34 35 36 37
000
FTUS42 KJAX 021120
TAFGNV
TAF
KGNV 021120Z 0212/0312 21005KT P6SM VCSH SCT030 BKN050
     FM021600 24006KT P6SM VCTS BKN040CB BKN250
     FM030000 VRB03KT P6SM BKN150 BKN250
     FM030900 VRB03KT 4SM BR SCT010=

USA.gov is the U.S. government's official web portal to all federal, state and local government web resources and services.